Nelson, MN (56355)

5:46 PM CST on January 19, 2017 (GMT -0600)
Burgen Sunrise | | Change Station

Elev 1398 ft 45.86 °N, 95.35 °W | Updated 6 seconds ago

Overcast
Overcast
35.4 °F
Feels Like 29 °F
N
7.2
Wind Variable Wind from SSE
Gusts 9.8 mph

Today
High -- | Low -- °F
--% Chance of Precip.
Yesterday
High -- | Low -- °F
Precip. -- in
Pressure 29.73 in
Visibility 0.2 miles
Clouds Overcast 200 ft
Windchill 29 °F
Dew Point 33 °F
Humidity 91%
Rainfall 0.02 in
Snow Depth Not available.
7:55 AM 5:08 PM
Waning Gibbous, 49% visible
METAR KAXN 192253Z AUTO 16010KT 1/4SM FG OVC002 01/01 A2968 RMK AO2 SLP066 T00110011
Pressure 29.73 in
Visibility 0.2 miles
Clouds Overcast 200 ft
Windchill 29 °F
Dew Point 33 °F
Humidity 91%
Rainfall 0.02 in
Snow Depth Not available.
7:55 AM 5:08 PM
Waning Gibbous, 49% visible
METAR KAXN 192253Z AUTO 16010KT 1/4SM FG OVC002 01/01 A2968 RMK AO2 SLP066 T00110011

Get Your Daily Forecast Email!

Thanks for signing up!

Be on the lookout for a verification email in your inbox.

You'll start receiving the daily forecast at 8 AM.

×

10-Day Weather Forecast

Almanac

Astronomy

Jan. 19, 2017 Rise Set
Actual Time
Civil Twilight
Nautical Twilight
Astronomical Twilight
Moon
Length of Visible Light
Length of Day
Tomorrow will be .
, % of the Moon is Illuminated

Today's Extremes

State Highs State Lows

Community

WunderPhotos

Upload Photos

1,962,540 photos uploaded!

WunderBlog® & News

Nearby

Air Quality

  Air Quality AQ Index Pollutant
Not available.

Snow Depth

Station Depth Elevation

Earthquake Activity

City Distance Mag. Time & Date
Minimum magnitude displayed is 2.5.

Coastal Water Temperatures

Place Temperature

Stations

Nearby Weather Stations

Station Location Temp. Windchill Dew Point Humidity Wind Precip. Elev Updated Type
                   

Watches & Warnings

There are currently no watches in effect.